Time;durP1;ratioP1;P1;durP2;ratioP2;P2;SDS_P1;SDS_P2;PMS_P1;PMS_P2;Temp;Humidity;BMP_temperature;BMP_pressure;BME280_temperature;BME280_humidity;BME280_pressure;Samples;Min_cycle;Max_cycle;Signal;HPM_P1;HPM_P2
2023/06/24 00:01:13;;;;;;;5.47;2.90;;;15.10;99.90;;;13.64;100.00;98540.81;4999868;28;20054;-85
2023/06/24 00:03:40;;;;;;;4.43;2.60;;;14.90;99.90;;;13.61;100.00;98543.53;4997288;28;20066;-86
2023/06/24 00:06:08;;;;;;;6.03;2.80;;;14.90;99.90;;;13.53;100.00;98550.81;4979507;28;20067;-86
2023/06/24 00:08:37;;;;;;;4.45;2.67;;;14.90;99.90;;;13.58;100.00;98554.09;4997848;28;20181;-86
2023/06/24 00:11:05;;;;;;;5.65;2.92;;;14.90;99.90;;;13.62;100.00;98550.47;4996752;28;20132;-85
2023/06/24 00:13:35;;;;;;;5.00;2.92;;;14.90;99.90;;;13.63;100.00;98551.31;4986303;28;20048;-85
2023/06/24 00:16:06;;;;;;;6.05;2.83;;;14.80;99.90;;;13.74;100.00;98546.50;5001508;28;20054;-86
2023/06/24 00:18:36;;;;;;;;;;;14.80;99.90;;;13.65;100.00;98552.09;4997994;28;20519;-87
2023/06/24 00:21:04;;;;;;;4.70;2.60;;;14.90;99.90;;;13.61;100.00;98564.41;5000506;28;19925;-85
2023/06/24 00:23:36;;;;;;;4.63;3.00;;;14.90;99.90;;;13.49;100.00;98564.88;4981997;28;21471;-85
2023/06/24 00:26:03;;;;;;;6.45;2.70;;;14.80;99.90;;;13.55;100.00;98564.66;4981518;28;20046;-86
2023/06/24 00:28:30;;;;;;;4.90;2.97;;;14.70;99.90;;;13.54;100.00;98555.97;5002659;28;20050;-85
2023/06/24 00:30:57;;;;;;;7.93;3.78;;;14.70;99.90;;;13.33;100.00;98570.69;5004310;28;20049;-85
2023/06/24 00:33:26;;;;;;;4.95;3.15;;;14.70;99.90;;;13.30;100.00;98565.59;4996285;28;20050;-86
2023/06/24 00:35:54;;;;;;;6.97;3.10;;;14.60;99.90;;;13.12;100.00;98569.69;5013936;28;20061;-85
2023/06/24 00:38:22;;;;;;;5.68;3.65;;;14.50;99.90;;;13.13;100.00;98570.53;5016062;28;20073;-85
2023/06/24 00:40:49;;;;;;;6.10;3.22;;;14.40;99.90;;;13.16;100.00;98573.06;4994175;28;20056;-85
2023/06/24 00:43:16;;;;;;;5.65;3.05;;;14.40;99.90;;;13.15;100.00;98568.72;4997048;28;20563;-85
2023/06/24 00:45:48;;;;;;;7.65;2.92;;;14.40;99.90;;;13.18;100.00;98577.31;4998239;28;20133;-85
2023/06/24 00:48:16;;;;;;;4.75;2.92;;;14.40;99.90;;;13.31;100.00;98571.66;5014578;28;20053;-85
2023/06/24 00:50:45;;;;;;;4.07;2.67;;;14.40;99.90;;;13.27;100.00;98568.25;4995851;28;20055;-85
2023/06/24 00:53:13;;;;;;;7.32;3.45;;;14.50;99.90;;;13.07;100.00;98575.97;5011268;28;20041;-85
2023/06/24 00:55:40;;;;;;;5.38;3.50;;;14.40;99.90;;;12.98;100.00;98574.56;5007009;28;20113;-85
2023/06/24 00:58:08;;;;;;;6.95;3.22;;;14.30;99.90;;;13.05;100.00;98581.25;4995717;28;20054;-86
2023/06/24 01:00:36;;;;;;;5.10;2.65;;;14.30;99.90;;;13.11;100.00;98580.16;4999820;28;20457;-85
2023/06/24 01:03:04;;;;;;;6.28;3.75;;;14.30;99.90;;;13.13;100.00;98586.19;4999036;28;20519;-85
2023/06/24 01:05:35;;;;;;;4.75;2.80;;;14.30;99.90;;;13.13;100.00;98586.19;4998917;28;20512;-86
2023/06/24 01:08:03;;;;;;;5.22;3.28;;;14.30;99.90;;;13.16;100.00;98586.09;5000911;28;20125;-85
2023/06/24 01:10:31;;;;;;;5.70;3.33;;;14.30;99.90;;;13.16;100.00;98586.94;5001146;28;20050;-86
2023/06/24 01:12:59;;;;;;;5.72;3.47;;;14.30;99.90;;;13.16;100.00;98586.94;4995663;28;20055;-86
2023/06/24 01:15:28;;;;;;;5.72;3.20;;;14.30;99.90;;;13.09;100.00;98581.97;5001646;28;20065;-85
2023/06/24 01:18:24;;;;;;;7.22;3.10;;;14.30;99.90;;;13.17;100.00;98588.63;4984854;28;20138;-86
2023/06/24 01:21:22;;;;;;;6.25;2.95;;;14.30;99.90;;;13.33;100.00;98573.28;4994329;28;20050;-87
2023/06/24 01:24:21;;;;;;;4.50;2.90;;;14.30;99.90;;;13.20;100.00;98579.84;5014246;28;20058;-85
2023/06/24 01:27:30;;;;;;;4.65;2.70;;;14.30;99.90;;;13.21;100.00;98573.72;5002628;28;20064;-85
2023/06/24 01:30:14;;;;;;;4.93;2.78;;;14.30;99.90;;;13.11;100.00;98581.06;5015195;28;20133;-86
2023/06/24 01:33:04;;;;;;;5.07;2.95;;;14.30;99.90;;;13.13;100.00;98583.56;4985292;28;20608;-86
2023/06/24 01:35:36;;;;;;;4.90;2.92;;;14.30;99.90;;;13.20;100.00;98585.03;4986824;28;20058;-86
2023/06/24 01:38:12;;;;;;;7.25;2.90;;;14.30;99.90;;;13.27;100.00;98581.31;5004185;28;20048;-86
2023/06/24 01:40:44;;;;;;;5.25;2.58;;;14.30;99.90;;;13.27;100.00;98580.47;5006681;28;20050;-87
2023/06/24 01:43:14;;;;;;;7.45;3.20;;;14.30;99.90;;;13.04;100.00;98581.31;5019801;28;20050;-87
2023/06/24 01:45:46;;;;;;;4.57;2.58;;;14.30;99.90;;;12.79;100.00;98589.16;5004874;28;20047;-85
2023/06/24 01:48:18;;;;;;;5.85;3.25;;;14.20;99.90;;;12.91;100.00;98589.59;5004733;28;20043;-86
2023/06/24 01:51:04;;;;;;;5.22;3.20;;;14.10;99.90;;;13.01;100.00;98590.09;5018906;28;20069;-85
2023/06/24 01:53:38;;;;;;;5.15;2.97;;;14.10;99.90;;;13.00;100.00;98596.22;5001806;28;20058;-87
2023/06/24 01:56:09;;;;;;;6.70;3.38;;;14.20;99.90;;;12.66;100.00;98597.41;5004210;28;20054;-87
2023/06/24 01:58:38;;;;;;;6.05;3.50;;;14.00;99.90;;;12.49;100.00;98594.53;5004228;28;20074;-89
2023/06/24 02:01:09;;;;;;;7.75;3.65;;;13.90;99.90;;;12.51;100.00;98605.75;4987792;28;20043;-85
2023/06/24 02:03:37;;;;;;;5.15;3.47;;;13.80;99.90;;;12.49;100.00;98610.16;5002883;28;20110;-86
2023/06/24 02:06:09;;;;;;;5.45;2.75;;;13.80;99.90;;;12.43;100.00;98605.13;4987018;28;20066;-86
2023/06/24 02:08:40;;;;;;;7.37;3.20;;;13.80;99.90;;;12.44;100.00;98606.84;4985653;28;20047;-86
2023/06/24 02:11:13;;;;;;;5.75;3.58;;;13.80;99.90;;;12.40;100.00;98610.47;5017433;28;20038;-86
2023/06/24 02:13:43;;;;;;;7.80;3.47;;;13.70;99.90;;;12.53;100.00;98616.97;5004620;28;20046;-86
2023/06/24 02:16:12;;;;;;;5.72;3.63;;;13.70;99.90;;;12.54;100.00;98613.44;5002081;28;20928;-86
2023/06/24 02:18:43;;;;;;;5.63;3.58;;;13.70;99.90;;;12.68;100.00;98607.75;5004345;28;20069;-86
2023/06/24 02:21:17;;;;;;;6.18;2.88;;;13.80;99.90;;;12.63;100.00;98600.09;4992293;28;20069;-87
2023/06/24 02:23:46;;;;;;;4.57;2.67;;;13.80;99.90;;;12.77;100.00;98592.69;5008791;28;20077;-86
2023/06/24 02:26:15;;;;;;;4.85;3.10;;;13.80;99.90;;;12.74;100.00;98586.72;4996331;28;20046;-86
2023/06/24 02:28:48;;;;;;;5.20;3.38;;;13.90;99.90;;;12.57;100.00;98589.91;4982508;28;20058;-86
2023/06/24 02:31:20;;;;;;;7.03;3.95;;;13.80;99.90;;;12.60;100.00;98596.78;4999376;28;20747;-85
2023/06/24 02:33:47;;;;;;;5.82;3.40;;;13.80;99.90;;;12.59;100.00;98601.13;4998403;28;20069;-85
2023/06/24 02:36:14;;;;;;;5.50;3.08;;;13.80;99.90;;;12.55;100.00;98594.31;4996056;28;20086;-85
2023/06/24 02:38:42;;;;;;;6.20;3.33;;;13.80;99.90;;;12.47;100.00;98596.31;4999631;28;20058;-85
2023/06/24 02:41:09;;;;;;;6.13;3.53;;;13.70;99.90;;;12.48;100.00;98601.50;4998546;28;20050;-85
2023/06/24 02:43:37;;;;;;;6.93;3.25;;;13.70;99.90;;;12.68;100.00;98595.59;5000122;28;20046;-85
2023/06/24 02:46:07;;;;;;;5.35;3.63;;;13.70;99.90;;;12.47;100.00;98599.78;4995789;28;20103;-85
2023/06/24 02:48:38;;;;;;;5.82;3.47;;;13.70;99.90;;;12.21;100.00;98594.63;4991518;28;20054;-85
2023/06/24 02:51:07;;;;;;;4.95;3.20;;;13.60;99.90;;;12.19;100.00;98601.63;4995581;28;20054;-85
2023/06/24 02:53:39;;;;;;;5.90;3.40;;;13.50;99.90;;;12.27;100.00;98613.47;4996593;28;20579;-85
2023/06/24 02:56:09;;;;;;;5.45;3.50;;;13.50;99.90;;;12.32;100.00;98610.72;4996778;28;20101;-85
2023/06/24 02:58:39;;;;;;;4.65;3.38;;;13.50;99.90;;;12.27;100.00;98616.09;4995829;28;20049;-85
2023/06/24 03:01:06;;;;;;;6.18;2.90;;;13.50;99.90;;;12.26;100.00;98611.75;4979954;28;20046;-85
2023/06/24 03:03:35;;;;;;;6.07;3.72;;;13.50;99.90;;;12.35;100.00;98608.84;5006368;28;20097;-86
2023/06/24 03:06:03;;;;;;;5.55;3.25;;;13.50;99.90;;;12.28;100.00;98606.53;4978002;28;20057;-86
2023/06/24 03:08:32;;;;;;;4.80;3.22;;;13.50;99.90;;;12.26;100.00;98610.91;4983705;28;20046;-86
2023/06/24 03:10:59;;;;;;;5.47;3.20;;;13.50;99.90;;;12.28;100.00;98607.34;5004964;28;20518;-88
2023/06/24 03:13:26;;;;;;;5.35;3.10;;;13.40;99.90;;;12.23;100.00;98611.03;4989344;28;20132;-85
2023/06/24 03:15:53;;;;;;;7.90;3.70;;;13.40;99.90;;;12.28;100.00;98615.16;4992697;28;20057;-86
2023/06/24 03:18:22;;;;;;;6.22;2.97;;;13.40;99.90;;;12.27;100.00;98615.22;4994989;28;20113;-86
2023/06/24 03:20:49;;;;;;;7.05;3.45;;;13.40;99.90;;;12.10;100.00;98618.38;4992416;28;20050;-86
2023/06/24 03:23:17;;;;;;;6.22;3.22;;;13.30;99.90;;;12.20;100.00;98618.91;5003390;28;20051;-86
2023/06/24 03:25:45;;;;;;;8.27;3.85;;;13.30;99.90;;;12.14;100.00;98617.38;4993244;28;20152;-86
2023/06/24 03:28:12;;;;;;;5.20;3.60;;;13.30;99.90;;;12.15;100.00;98626.88;4996655;28;20077;-86
2023/06/24 03:30:39;;;;;;;6.20;3.33;;;13.30;99.90;;;12.14;100.00;98618.22;4997845;28;20054;-87
2023/06/24 03:33:06;;;;;;;5.60;3.67;;;13.30;99.90;;;12.21;100.00;98618.03;4997556;28;20092;-86
2023/06/24 03:35:34;;;;;;;7.15;3.88;;;13.20;99.90;;;12.23;100.00;98621.44;4994232;28;20073;-86
2023/06/24 03:38:03;;;;;;;5.68;3.65;;;13.30;99.90;;;12.21;100.00;98620.63;4989112;28;20266;-86
2023/06/24 03:40:31;;;;;;;7.07;3.50;;;13.30;99.90;;;12.21;100.00;98613.69;4992337;28;20075;-86
2023/06/24 03:42:58;;;;;;;9.70;3.40;;;13.30;99.90;;;12.32;100.00;98616.78;4996784;28;20058;-86
2023/06/24 03:45:26;;;;;;;7.68;3.28;;;13.40;99.90;;;12.43;100.00;98613.81;4976724;28;20121;-86
2023/06/24 03:47:53;;;;;;;6.03;3.30;;;13.50;99.90;;;12.33;100.00;98615.88;4978455;28;20124;-87
2023/06/24 03:50:20;;;;;;;6.43;3.80;;;13.50;99.90;;;12.27;100.00;98623.91;5016422;28;20053;-85
2023/06/24 03:52:48;;;;;;;4.57;3.35;;;13.50;99.90;;;12.42;100.00;98621.69;4994897;28;20148;-86
2023/06/24 03:55:15;;;;;;;6.68;3.35;;;13.50;99.90;;;12.65;100.00;98623.50;4996962;28;20081;-86
2023/06/24 03:57:42;;;;;;;7.25;3.80;;;13.50;99.90;;;12.64;100.00;98620.06;4996164;28;20141;-85
2023/06/24 04:00:16;;;;;;;6.30;3.53;;;13.60;99.90;;;12.59;100.00;98611.56;4995045;28;20078;-85
2023/06/24 04:02:45;;;;;;;5.93;3.47;;;13.60;99.90;;;12.67;100.00;98612.13;4995617;28;20119;-86
2023/06/24 04:05:13;;;;;;;7.25;3.90;;;13.60;99.90;;;12.24;100.00;98603.16;5008428;28;20109;-85
2023/06/24 04:07:41;;;;;;;6.85;3.90;;;13.50;99.90;;;12.09;100.00;98607.13;5010181;28;20042;-85
2023/06/24 04:10:10;;;;;;;7.95;3.40;;;13.40;99.90;;;12.09;100.00;98616.69;5003345;28;20054;-86
2023/06/24 04:12:38;;;;;;;9.68;3.85;;;13.40;99.90;;;12.20;100.00;98621.53;5002630;28;20054;-86
2023/06/24 04:15:07;;;;;;;6.03;3.55;;;13.30;99.90;;;12.31;100.00;98630.69;4998629;28;20056;-86
2023/06/24 04:17:34;;;;;;;5.85;4.30;;;13.30;99.90;;;12.29;100.00;98636.84;4999763;28;20058;-86
2023/06/24 04:20:08;;;;;;;5.45;3.67;;;13.40;99.90;;;12.36;100.00;98638.34;4994224;28;20070;-86
2023/06/24 04:22:41;;;;;;;7.13;3.33;;;13.40;99.90;;;12.52;100.00;98644.75;4982750;28;20058;-85
2023/06/24 04:25:09;;;;;;;;;;;13.40;99.90;;;12.49;100.00;98647.44;4997334;28;20428;-86
2023/06/24 04:27:36;;;;;;;7.95;3.85;;;13.50;99.90;;;12.64;100.00;98648.72;4986894;28;19926;-86
2023/06/24 04:30:04;;;;;;;5.65;3.88;;;13.50;99.90;;;12.94;100.00;98641.59;4993308;28;20049;-85
2023/06/24 04:32:32;;;;;;;6.22;3.45;;;13.70;99.90;;;13.12;100.00;98641.84;4997973;28;20060;-86
2023/06/24 04:35:00;;;;;;;5.70;3.35;;;13.80;99.90;;;13.25;100.00;98637.91;5012376;28;20039;-86
2023/06/24 04:37:28;;;;;;;5.85;3.20;;;14.00;99.90;;;13.42;100.00;98641.66;4996810;28;20050;-86
2023/06/24 04:39:56;;;;;;;4.88;3.80;;;14.20;99.90;;;13.48;100.00;98631.84;5013156;28;20082;-86
2023/06/24 04:42:24;;;;;;;7.28;3.63;;;14.30;99.90;;;13.49;100.00;98630.09;4998982;28;20058;-85
2023/06/24 04:44:52;;;;;;;9.43;4.43;;;14.40;99.90;;;13.58;100.00;98622.75;4999059;28;20746;-86
2023/06/24 04:47:21;;;;;;;5.30;3.63;;;14.40;99.90;;;13.84;100.00;98618.28;4997649;28;20050;-86
2023/06/24 04:49:48;;;;;;;5.53;4.13;;;14.30;99.90;;;13.56;100.00;98624.56;4999927;28;20496;-86
2023/06/24 04:52:16;;;;;;;4.95;3.75;;;14.30;99.90;;;13.60;100.00;98617.50;4993787;28;20035;-86
2023/06/24 04:54:43;;;;;;;5.93;4.28;;;14.40;99.90;;;13.66;100.00;98619.00;4980478;28;20050;-86
2023/06/24 04:57:28;;;;;;;5.45;4.03;;;14.30;99.90;;;13.67;100.00;98618.13;5000384;28;20054;-86
2023/06/24 04:59:56;;;;;;;7.40;4.80;;;14.40;99.90;;;13.71;100.00;98622.31;4994643;28;20100;-86
2023/06/24 05:02:24;;;;;;;6.28;3.88;;;14.50;99.90;;;13.75;100.00;98624.75;4983184;28;20141;-87
2023/06/24 05:04:52;;;;;;;6.35;4.32;;;14.50;99.90;;;13.86;100.00;98626.91;4995809;28;20089;-87
2023/06/24 05:07:20;;;;;;;7.68;4.25;;;14.50;99.90;;;14.07;100.00;98622.63;4995551;28;20050;-86
2023/06/24 05:09:51;;;;;;;6.75;4.68;;;14.40;99.90;;;13.99;100.00;98622.06;4998074;28;20050;-87
2023/06/24 05:12:19;;;;;;;6.30;4.30;;;14.50;99.90;;;14.06;100.00;98620.06;4991104;28;20133;-87
2023/06/24 05:14:54;;;;;;;6.78;4.57;;;14.60;99.90;;;14.00;100.00;98619.41;4996755;28;20050;-87
2023/06/24 05:17:21;;;;;;;6.88;4.57;;;14.70;99.90;;;14.58;100.00;98620.56;4999684;28;20060;-86
2023/06/24 05:19:49;;;;;;;5.88;3.92;;;14.90;99.90;;;14.88;100.00;98618.41;4998579;28;20120;-86
2023/06/24 05:22:16;;;;;;;6.22;4.55;;;15.20;99.90;;;15.21;100.00;98610.84;5019105;28;20081;-86
2023/06/24 05:24:43;;;;;;;6.63;3.85;;;15.40;99.90;;;15.48;100.00;98605.25;4998817;28;20054;-85
2023/06/24 05:27:11;;;;;;;5.43;3.90;;;15.70;99.90;;;15.74;100.00;98598.84;4995116;28;20054;-86
2023/06/24 05:29:38;;;;;;;7.18;3.90;;;15.90;99.90;;;16.04;100.00;98590.47;4998391;28;20057;-86
2023/06/24 05:32:05;;;;;;;5.47;3.80;;;16.20;99.90;;;16.16;100.00;98589.84;4998080;28;20042;-86
2023/06/24 05:34:35;;;;;;;6.90;4.53;;;16.40;99.90;;;16.32;100.00;98587.31;4982145;28;20065;-86
2023/06/24 05:37:03;;;;;;;5.82;3.85;;;16.60;99.90;;;16.65;100.00;98581.28;4996469;28;20428;-86
2023/06/24 05:39:31;;;;;;;6.13;3.95;;;16.60;99.90;;;16.81;100.00;98581.38;4994676;28;20065;-86
2023/06/24 05:41:58;;;;;;;4.47;3.80;;;16.80;99.90;;;16.95;100.00;98585.94;5012927;28;20108;-86
2023/06/24 05:44:25;;;;;;;5.10;3.88;;;17.00;99.90;;;17.07;100.00;98587.88;5014598;28;20050;-86
2023/06/24 05:46:52;;;;;;;5.60;3.83;;;17.20;99.90;;;17.46;100.00;98584.06;4999009;28;20120;-86
2023/06/24 05:49:19;;;;;;;5.80;3.95;;;17.40;99.90;;;17.58;100.00;98577.28;4998283;28;20085;-87
2023/06/24 05:51:46;;;;;;;4.28;2.95;;;17.70;99.90;;;17.95;100.00;98581.38;4997268;28;20054;-86
2023/06/24 05:54:14;;;;;;;4.32;3.40;;;17.90;99.90;;;18.17;100.00;98580.97;4997588;28;20050;-86
2023/06/24 05:56:42;;;;;;;6.78;3.55;;;18.10;99.90;;;18.21;100.00;98579.88;4997738;28;20085;-86
2023/06/24 05:59:09;;;;;;;5.72;3.60;;;18.30;99.90;;;18.17;100.00;98580.97;4999593;28;20046;-86
2023/06/24 06:01:37;;;;;;;5.00;3.28;;;18.40;99.90;;;18.45;100.00;98574.09;5013736;28;20054;-86
2023/06/24 06:04:05;;;;;;;4.93;3.60;;;18.60;99.90;;;18.71;100.00;98570.78;4981114;28;20054;-86
2023/06/24 06:06:33;;;;;;;4.72;3.65;;;18.80;99.90;;;19.11;100.00;98576.31;4994034;28;20496;-86
2023/06/24 06:09:00;;;;;;;5.70;3.17;;;19.00;99.90;;;19.39;100.00;98566.69;4995789;28;20071;-87
2023/06/24 06:11:28;;;;;;;6.45;3.15;;;19.30;99.90;;;19.45;100.00;98561.00;4995507;28;20051;-87
2023/06/24 06:13:56;;;;;;;5.60;3.13;;;19.50;99.90;;;19.53;100.00;98550.84;5016219;28;20046;-85
2023/06/24 06:16:24;;;;;;;3.83;3.05;;;19.70;99.90;;;19.74;100.00;98558.34;4997585;28;20117;-86
2023/06/24 06:18:52;;;;;;;5.85;3.33;;;20.00;99.90;;;19.89;100.00;98549.47;4998743;28;20073;-86
2023/06/24 06:21:21;;;;;;;3.72;2.83;;;20.10;99.90;;;20.01;100.00;98551.28;4989748;28;20046;-86
2023/06/24 06:23:48;;;;;;;4.13;2.95;;;20.30;99.90;;;20.14;100.00;98550.47;4992594;28;20053;-85
2023/06/24 06:26:16;;;;;;;5.07;3.35;;;20.40;99.90;;;20.22;100.00;98545.53;4993769;28;20050;-88
2023/06/24 06:28:43;;;;;;;3.83;3.35;;;20.60;99.90;;;20.51;100.00;98548.03;4991834;28;20595;-85
2023/06/24 06:31:10;;;;;;;4.10;3.00;;;20.70;99.90;;;20.51;100.00;98548.03;4989533;28;20046;-86
2023/06/24 06:33:38;;;;;;;3.97;3.20;;;20.90;99.90;;;20.73;100.00;98550.91;4988155;28;20056;-86
2023/06/24 06:36:05;;;;;;;3.90;2.90;;;21.00;99.90;;;21.09;100.00;98551.94;4978927;28;20142;-86
2023/06/24 06:38:33;;;;;;;4.15;3.15;;;21.10;99.90;;;21.36;100.00;98548.31;4995434;28;20054;-87
2023/06/24 06:41:01;;;;;;;7.57;3.70;;;21.30;99.90;;;21.00;100.00;98549.94;4998144;28;20567;-86
2023/06/24 06:43:28;;;;;;;5.22;3.10;;;21.40;99.90;;;21.48;100.00;98550.09;4994865;28;20496;-86
2023/06/24 06:45:56;;;;;;;5.85;3.35;;;21.30;99.90;;;21.44;100.00;98543.34;4995811;28;20436;-87
2023/06/24 06:48:24;;;;;;;5.15;3.05;;;21.40;99.90;;;21.58;100.00;98550.28;4997011;28;20482;-87
2023/06/24 06:50:53;;;;;;;6.45;3.58;;;21.50;99.90;;;21.52;100.00;98546.28;4994567;28;20136;-86
2023/06/24 06:53:20;;;;;;;5.60;3.30;;;21.60;99.90;;;21.72;100.00;98544.84;4995118;28;20046;-86
2023/06/24 06:55:47;;;;;;;3.97;2.80;;;21.80;99.90;;;21.84;100.00;98538.66;4996222;28;20098;-86
2023/06/24 06:58:14;;;;;;;5.05;2.90;;;21.80;99.90;;;22.05;100.00;98533.56;4996115;28;20046;-86
2023/06/24 07:00:41;;;;;;;4.53;2.92;;;22.00;99.90;;;22.04;100.00;98539.81;4994908;28;20049;-86
2023/06/24 07:03:08;;;;;;;5.68;3.35;;;22.20;99.90;;;22.34;100.00;98533.22;5000052;28;20383;-86
2023/06/24 07:05:36;;;;;;;4.57;2.90;;;22.50;99.90;;;22.43;100.00;98540.47;4992789;28;20046;-87
2023/06/24 07:08:06;;;;;;;5.97;3.40;;;22.50;99.90;;;22.37;100.00;98535.63;4962471;28;20109;-86
2023/06/24 07:10:33;;;;;;;7.25;3.88;;;22.50;99.90;;;22.27;100.00;98532.00;5008569;28;20520;-87
2023/06/24 07:13:00;;;;;;;4.20;3.28;;;22.50;99.90;;;22.23;100.00;98534.03;4993321;28;20053;-87
2023/06/24 07:15:28;;;;;;;4.38;2.63;;;22.50;99.90;;;22.64;100.00;98532.69;4978591;28;20050;-87
2023/06/24 07:17:55;;;;;;;6.55;3.67;;;22.60;99.90;;;22.01;100.00;98532.13;4997223;28;20507;-86
2023/06/24 07:20:23;;;;;;;6.20;3.25;;;22.60;99.90;;;22.67;100.00;98523.66;4996941;28;20046;-86
2023/06/24 07:22:50;;;;;;;5.82;4.05;;;22.90;99.90;;;22.40;100.00;98527.47;4996460;28;20050;-86
2023/06/24 07:25:17;;;;;;;4.68;3.50;;;23.10;99.90;;;23.04;100.00;98523.50;5004709;28;20058;-86
2023/06/24 07:27:44;;;;;;;5.22;3.50;;;23.30;99.90;;;23.47;100.00;98512.09;4980111;28;20447;-86
2023/06/24 07:30:12;;;;;;;4.40;3.50;;;23.50;99.90;;;23.30;100.00;98519.59;4997149;28;20473;-87
2023/06/24 07:32:41;;;;;;;4.85;3.10;;;23.70;99.90;;;23.86;100.00;98517.84;4994973;28;20046;-87
2023/06/24 07:35:08;;;;;;;4.40;3.28;;;23.90;99.90;;;23.41;100.00;98517.91;4995685;28;20408;-87
2023/06/24 07:37:36;;;;;;;5.88;3.58;;;24.00;99.90;;;23.09;100.00;98527.44;4994133;28;20512;-87
2023/06/24 07:40:05;;;;;;;5.80;3.80;;;23.90;99.90;;;22.88;100.00;98518.53;4997080;28;20046;-86
2023/06/24 07:42:32;;;;;;;5.60;3.65;;;23.70;99.90;;;23.40;100.00;98514.44;4993171;28;20074;-87
2023/06/24 07:45:01;;;;;;;4.50;2.80;;;23.90;99.90;;;24.05;100.00;98507.38;4993217;28;20039;-87
2023/06/24 07:47:28;;;;;;;4.63;2.80;;;24.10;99.90;;;24.26;100.00;98504.72;4996264;28;20050;-86
2023/06/24 07:49:57;;;;;;;4.63;3.03;;;24.30;99.90;;;24.28;100.00;98516.06;4993821;28;20058;-87
2023/06/24 07:52:25;;;;;;;4.85;2.75;;;24.60;99.90;;;24.78;100.00;98515.41;4974079;28;20060;-87
2023/06/24 07:54:53;;;;;;;4.30;2.67;;;24.80;99.90;;;24.50;100.00;98508.97;4976309;28;20523;-86
2023/06/24 07:57:21;;;;;;;4.75;3.25;;;24.90;99.90;;;24.17;100.00;98508.97;4995723;28;20054;-86
2023/06/24 07:59:49;;;;;;;6.65;3.60;;;24.80;99.90;;;23.64;100.00;98513.41;4995938;28;20141;-86
2023/06/24 08:02:16;;;;;;;7.07;3.60;;;24.60;99.90;;;24.15;100.00;98508.31;4991156;28;20512;-86
2023/06/24 08:04:43;;;;;;;6.60;3.50;;;24.60;99.90;;;24.53;100.00;98517.50;4991315;28;20046;-88
2023/06/24 08:07:11;;;;;;;7.43;2.90;;;24.80;99.90;;;24.58;100.00;98512.63;4991964;28;20061;-86
2023/06/24 08:09:38;;;;;;;5.38;2.67;;;25.10;99.20;;;24.50;100.00;98515.13;4993990;28;20044;-86
2023/06/24 08:12:06;;;;;;;5.45;2.75;;;25.00;99.30;;;24.91;100.00;98513.38;4996942;28;20130;-87
2023/06/24 08:14:35;;;;;;;5.07;3.08;;;25.10;99.20;;;24.82;100.00;98511.53;4991200;28;20054;-87
2023/06/24 08:17:02;;;;;;;4.72;2.70;;;25.30;98.90;;;25.10;100.00;98503.81;4993873;28;20047;-87
2023/06/24 08:19:29;;;;;;;6.68;3.13;;;25.30;98.70;;;25.12;100.00;98502.69;5005171;28;20105;-87
2023/06/24 08:21:58;;;;;;;7.45;2.92;;;25.50;98.00;;;24.87;100.00;98504.00;4996830;28;20523;-87
2023/06/24 08:24:26;;;;;;;4.07;2.90;;;25.40;97.70;;;24.88;100.00;98497.69;4996121;28;20138;-88
2023/06/24 08:26:53;;;;;;;4.40;3.25;;;25.20;98.00;;;24.63;100.00;98498.97;4982717;28;20050;-87
2023/06/24 08:29:24;;;;;;;5.38;2.83;;;25.30;97.50;;;24.74;100.00;98504.19;5000340;28;20051;-87
2023/06/24 08:31:52;;;;;;;6.88;3.00;;;25.40;97.30;;;25.11;100.00;98492.19;5001062;28;20050;-86
2023/06/24 08:34:19;;;;;;;4.68;2.92;;;25.50;96.60;;;25.27;100.00;98495.19;4996737;28;20058;-87
2023/06/24 08:36:47;;;;;;;6.72;2.47;;;25.70;95.90;;;25.08;100.00;98490.66;4993793;28;20105;-86
2023/06/24 08:39:14;;;;;;;3.45;2.40;;;25.50;96.10;;;25.39;100.00;98498.63;4994870;28;20078;-87
2023/06/24 08:41:41;;;;;;;5.35;2.90;;;25.50;95.40;;;25.67;100.00;98483.66;4998146;28;20046;-88
2023/06/24 08:44:11;;;;;;;4.43;2.70;;;;;;;25.43;100.00;98486.72;5008871;28;20421;-88
2023/06/24 08:46:38;;;;;;;5.13;3.13;;;25.30;94.90;;;25.65;100.00;98475.00;5000217;28;20073;-88
2023/06/24 08:49:22;;;;;;;4.85;2.63;;;25.10;95.20;;;25.55;100.00;98485.63;4999644;28;20042;-87
2023/06/24 08:52:08;;;;;;;6.72;3.28;;;25.10;96.30;;;26.03;100.00;98476.00;5013565;28;20491;-87
2023/06/24 08:54:39;;;;;;;3.47;2.40;;;25.10;95.90;;;27.32;100.00;98470.03;4998209;28;20073;-88
2023/06/24 08:57:08;;;;;;;4.40;2.47;;;25.80;96.50;;;27.90;100.00;98473.28;4995459;28;20480;-87
2023/06/24 08:59:38;;;;;;;;;;;26.60;96.00;;;27.91;100.00;98470.44;4992187;28;20061;-87
2023/06/24 09:02:05;;;;;;;4.00;2.53;;;27.10;95.20;;;26.05;100.00;98474.06;4994994;28;19952;-87
2023/06/24 09:04:33;;;;;;;4.40;2.30;;;27.10;93.60;;;26.00;100.00;98479.81;4992777;28;20112;-86
2023/06/24 09:07:00;;;;;;;3.97;2.45;;;26.70;94.00;;;25.64;100.00;98471.50;4995250;28;20444;-85
2023/06/24 09:09:28;;;;;;;5.35;2.33;;;26.50;94.20;;;26.54;100.00;98471.28;4991126;28;20050;-86
2023/06/24 09:12:01;;;;;;;4.55;2.30;;;26.60;94.40;;;26.16;100.00;98473.03;4996705;28;20053;-87
2023/06/24 09:14:30;;;;;;;3.95;2.65;;;26.60;94.10;;;24.71;100.00;98482.41;4992921;28;20070;-86
2023/06/24 09:17:02;;;;;;;3.00;1.77;;;26.10;94.40;;;25.23;100.00;98473.41;4990835;28;20449;-86
2023/06/24 09:19:32;;;;;;;4.70;2.72;;;25.90;95.20;;;24.86;100.00;98475.78;5012675;28;20058;-85
2023/06/24 09:22:09;;;;;;;6.18;3.00;;;25.80;94.90;;;24.62;100.00;98474.25;4990524;28;20042;-87
2023/06/24 09:24:37;;;;;;;5.05;2.88;;;25.80;94.60;;;24.56;100.00;98477.44;5006148;28;20073;-87
2023/06/24 09:27:05;;;;;;;4.53;2.53;;;25.50;94.80;;;24.57;100.00;98467.66;4995443;28;20053;-85
2023/06/24 09:29:34;;;;;;;5.43;2.63;;;25.30;95.60;;;25.56;100.00;98463.38;4992284;28;20078;-86
2023/06/24 09:32:06;;;;;;;4.38;2.63;;;25.80;95.20;;;27.05;100.00;98452.19;4994365;28;20046;-87
2023/06/24 09:34:34;;;;;;;6.18;2.92;;;27.30;94.20;;;27.79;100.00;98450.31;4989672;28;20051;-86
2023/06/24 09:37:01;;;;;;;3.55;2.30;;;28.60;93.20;;;29.21;100.00;98455.41;4972748;28;20073;-86
2023/06/24 09:39:39;;;;;;;5.43;2.35;;;29.60;92.90;;;29.21;100.00;98441.22;4989558;28;20500;-87
2023/06/24 09:42:08;;;;;;;5.05;1.85;;;30.10;90.40;;;29.78;100.00;98439.47;4991457;28;20057;-87
2023/06/24 09:44:35;;;;;;;7.55;2.80;;;30.60;90.10;;;29.09;100.00;98438.84;5007227;28;20467;-86
2023/06/24 09:47:03;;;;;;;5.70;2.33;;;30.20;89.20;;;29.50;100.00;98428.22;4991876;28;20436;-86
2023/06/24 09:49:30;;;;;;;6.32;2.30;;;30.50;90.20;;;29.58;98.38;98425.56;4988351;28;20046;-86
2023/06/24 09:51:59;;;;;;;6.25;2.25;;;30.90;87.80;;;29.79;100.00;98427.78;5003621;28;20073;-87
2023/06/24 09:54:28;;;;;;;3.45;2.20;;;30.80;88.50;;;27.67;100.00;98432.88;4988829;28;20050;-86
2023/06/24 09:57:03;;;;;;;3.42;2.13;;;29.80;88.10;;;26.87;100.00;98438.81;4978544;28;20407;-87
2023/06/24 09:59:33;;;;;;;3.08;2.30;;;28.80;89.00;;;26.54;100.00;98437.50;4993651;28;20455;-86
2023/06/24 10:02:04;;;;;;;3.22;2.10;;;28.30;89.70;;;27.22;100.00;98433.75;4972874;28;20050;-87
2023/06/24 10:04:32;;;;;;;4.72;2.50;;;28.50;90.40;;;28.04;100.00;98426.53;4991578;28;20488;-86
2023/06/24 10:07:00;;;;;;;4.28;2.70;;;28.60;90.50;;;28.09;100.00;98424.22;4992368;28;20054;-86
2023/06/24 10:09:27;;;;;;;3.63;2.40;;;28.50;90.20;;;27.46;100.00;98423.34;4991990;28;20050;-86
2023/06/24 10:11:54;;;;;;;4.57;2.38;;;28.40;90.40;;;27.19;100.00;98428.69;4990361;28;20725;-87
2023/06/24 10:14:22;;;;;;;4.88;2.30;;;28.10;90.10;;;28.35;100.00;98426.88;4992015;28;20112;-86
2023/06/24 10:16:50;;;;;;;4.93;2.15;;;28.30;90.50;;;28.60;100.00;98427.06;4988288;28;20077;-86
2023/06/24 10:19:22;;;;;;;3.60;2.20;;;28.70;89.00;;;28.30;100.00;98418.50;5007735;28;20054;-86
2023/06/24 10:21:59;;;;;;;4.70;2.15;;;28.60;88.10;;;27.41;100.00;98408.78;4995837;28;20101;-87